Accueil
METAR-TAF:

METAR-TAF

Aéroports :

Orcas Island Airport

Eastsound, Washington, États-Unis

latitude: 48-42-29N, longitude: 122-54-37W, altitude: 9 m

Observation

Le bulletin a été fait il y a 16 minutes, à 14:55 UTC
Vent 3 kt de direction variable
Température 15°C
Humidité 82%
Pression 1015 hPa
Visibilité: 16.1 km
Ciel clair

METAR: KORS 201455Z AUTO VRB03KT 10SM CLR 15/12 A2997 RMK AO2

Heure: 08:11 (15:11 UTC)


TAF: absent

Observations et prévisions météorologiques de plus de 4000 aéroports (messages METAR et TAF).

Les stations disponibles sont représentées par des disques jaunes et rouges sur la carte.

Passer la souris dessus pour voir le nom de la station.

Cliquer dessus pour voir les observations et prévisions météorologiques.

Pour changer de carte: cliquez sur les boutons verts avec une croix noire pour zoomer, sur le bouton vert avec un tiret pour effectuer un zoom arrière, ou sur les flèches vertes pour les cartes adjacentes.


METAR-TAF: